createdAt,value
2022-08-03T00:02:11.228Z,3.40
2022-08-03T00:04:41.780Z,2.90
2022-08-03T00:07:22.512Z,3.10
2022-08-03T00:09:53.322Z,3.20
2022-08-03T00:12:37.333Z,3.00
2022-08-03T00:15:11.267Z,2.80
2022-08-03T00:17:52.597Z,3.20
2022-08-03T00:20:24.955Z,2.90
2022-08-03T00:22:55.592Z,2.70
2022-08-03T00:25:26.538Z,2.80
2022-08-03T00:28:02.017Z,3.00
2022-08-03T00:30:32.680Z,2.70
2022-08-03T00:33:03.989Z,3.00
2022-08-03T00:35:51.050Z,3.00
2022-08-03T00:38:21.977Z,2.90
2022-08-03T00:40:52.598Z,2.90
2022-08-03T00:43:27.814Z,3.20
2022-08-03T00:46:03.000Z,3.10
2022-08-03T00:48:33.940Z,3.10
2022-08-03T00:51:04.926Z,3.10
2022-08-03T00:53:37.944Z,3.20
2022-08-03T00:56:08.919Z,3.00
2022-08-03T00:58:40.475Z,3.00
2022-08-03T01:01:12.486Z,3.00
2022-08-03T01:03:45.865Z,3.20
2022-08-03T01:06:21.239Z,3.00
2022-08-03T01:09:07.923Z,2.80
2022-08-03T01:12:00.991Z,3.20
2022-08-03T01:14:39.601Z,3.20
2022-08-03T01:17:15.927Z,3.20
2022-08-03T01:19:53.502Z,3.30
2022-08-03T01:22:52.923Z,2.80
2022-08-03T01:25:36.448Z,2.70
2022-08-03T01:28:27.866Z,3.20
2022-08-03T01:31:04.362Z,3.30
2022-08-03T01:33:40.405Z,2.80
2022-08-03T01:36:18.973Z,3.00
2022-08-03T01:39:00.161Z,3.00
2022-08-03T01:41:40.127Z,3.00
2022-08-03T01:44:29.417Z,2.90
2022-08-03T01:47:11.829Z,2.90
2022-08-03T01:49:45.156Z,3.30
2022-08-03T01:52:19.818Z,3.00
2022-08-03T01:54:53.585Z,3.00
2022-08-03T01:57:26.425Z,2.40
2022-08-03T02:00:00.762Z,2.70
2022-08-03T02:02:34.636Z,3.20
2022-08-03T02:05:10.937Z,3.20
2022-08-03T02:07:44.507Z,2.60
2022-08-03T02:10:34.285Z,3.10
2022-08-03T02:13:10.823Z,2.90
2022-08-03T02:15:42.531Z,3.10
2022-08-03T02:18:25.300Z,3.00
2022-08-03T02:20:56.966Z,3.20
2022-08-03T02:23:35.402Z,2.80
2022-08-03T02:26:09.264Z,2.70
2022-08-03T02:28:49.647Z,2.90
2022-08-03T02:31:24.263Z,3.00
2022-08-03T02:34:03.278Z,2.90
2022-08-03T02:36:39.404Z,3.00
2022-08-03T02:39:14.699Z,3.00
2022-08-03T02:42:02.451Z,3.40
2022-08-03T02:44:47.746Z,3.00
2022-08-03T02:47:23.002Z,3.00
2022-08-03T02:49:58.874Z,3.00
2022-08-03T02:52:31.855Z,3.20
2022-08-03T02:55:23.532Z,2.90
2022-08-03T02:58:00.904Z,2.70
2022-08-03T03:00:34.378Z,2.90
2022-08-03T03:03:07.169Z,3.20
2022-08-03T03:05:52.107Z,3.10
2022-08-03T03:08:26.773Z,3.00
2022-08-03T03:11:02.060Z,3.00
2022-08-03T03:13:33.543Z,2.90
2022-08-03T03:16:27.184Z,3.10
2022-08-03T03:18:58.461Z,2.90
2022-08-03T03:21:30.664Z,2.90
2022-08-03T03:24:13.369Z,2.90
2022-08-03T03:26:46.829Z,3.20
2022-08-03T03:31:47.641Z,3.10
2022-08-03T03:34:19.280Z,3.10
2022-08-03T03:36:50.119Z,3.30
2022-08-03T03:39:20.833Z,3.20
2022-08-03T03:41:55.289Z,3.00
2022-08-03T03:46:58.580Z,3.00
2022-08-03T03:49:29.771Z,3.20
2022-08-03T03:52:03.680Z,2.90
2022-08-03T03:54:44.288Z,4.10
2022-08-03T03:57:15.114Z,3.10
2022-08-03T03:59:46.385Z,3.20
2022-08-03T04:02:17.903Z,3.00
2022-08-03T04:05:16.467Z,3.10
2022-08-03T04:08:27.790Z,3.00
2022-08-03T04:11:08.605Z,2.80
2022-08-03T04:13:41.830Z,3.40
2022-08-03T04:16:16.279Z,3.20
2022-08-03T04:18:58.907Z,2.70
2022-08-03T04:21:33.998Z,2.80
2022-08-03T04:24:08.308Z,3.20
2022-08-03T04:26:41.268Z,2.80
2022-08-03T04:29:14.145Z,3.30
2022-08-03T04:31:47.703Z,3.00
2022-08-03T04:34:19.091Z,3.10
2022-08-03T04:36:54.989Z,2.90
2022-08-03T04:39:29.409Z,2.90
2022-08-03T04:42:08.200Z,2.90
2022-08-03T04:44:42.233Z,2.80
2022-08-03T04:47:13.165Z,3.00
2022-08-03T04:49:44.560Z,3.40
2022-08-03T04:52:18.420Z,3.40
2022-08-03T04:57:39.210Z,3.00
2022-08-03T05:00:13.197Z,2.70
2022-08-03T05:02:43.868Z,3.10
2022-08-03T05:05:49.473Z,3.20
2022-08-03T05:08:27.856Z,3.00
2022-08-03T05:11:10.359Z,3.00
2022-08-03T05:13:41.108Z,3.00
2022-08-03T05:16:21.901Z,2.60
2022-08-03T05:19:12.839Z,3.20
2022-08-03T05:21:52.367Z,3.20
2022-08-03T05:24:32.809Z,3.10
2022-08-03T05:33:23.925Z,2.90
2022-08-03T05:36:08.772Z,3.00
2022-08-03T05:38:51.243Z,3.00
2022-08-03T05:41:36.576Z,3.30
2022-08-03T05:44:19.602Z,3.50
2022-08-03T05:46:59.381Z,3.00
2022-08-03T05:49:34.161Z,2.80
2022-08-03T05:52:12.653Z,3.30
2022-08-03T05:54:56.151Z,3.20
2022-08-03T05:57:28.214Z,2.90
2022-08-03T06:00:01.508Z,3.20
2022-08-03T06:02:45.680Z,3.10
2022-08-03T06:05:16.585Z,3.00
2022-08-03T06:07:48.083Z,3.30
2022-08-03T06:10:36.004Z,3.50
2022-08-03T06:13:08.555Z,3.20
2022-08-03T06:15:39.474Z,3.10
2022-08-03T06:18:24.825Z,3.00
2022-08-03T06:21:14.801Z,3.10
2022-08-03T06:23:55.520Z,3.30
2022-08-03T06:26:31.823Z,2.90
2022-08-03T06:29:03.950Z,2.90
2022-08-03T06:31:36.539Z,2.90
2022-08-03T06:34:32.954Z,3.20
2022-08-03T06:37:02.369Z,3.50
2022-08-03T06:39:33.581Z,3.10
2022-08-03T06:42:04.969Z,3.20
2022-08-03T06:44:40.397Z,2.80
2022-08-03T06:47:13.636Z,3.00
2022-08-03T06:50:12.720Z,3.20
2022-08-03T06:52:41.839Z,3.60
2022-08-03T06:55:17.403Z,3.40
2022-08-03T06:57:54.501Z,3.70
2022-08-03T07:00:35.038Z,4.50
2022-08-03T07:03:11.160Z,4.50
2022-08-03T07:05:53.477Z,4.30
2022-08-03T07:08:33.144Z,4.10
2022-08-03T07:11:12.223Z,4.90
2022-08-03T07:13:47.665Z,4.70
2022-08-03T07:16:23.635Z,4.70
2022-08-03T07:18:59.578Z,4.30
2022-08-03T07:21:39.086Z,5.00
2022-08-03T07:24:14.320Z,5.70
2022-08-03T07:26:49.228Z,5.30
2022-08-03T07:29:22.541Z,5.20
2022-08-03T07:31:57.609Z,4.90
2022-08-03T07:34:32.906Z,4.60
2022-08-03T07:37:09.900Z,4.50
2022-08-03T07:39:40.960Z,4.20
2022-08-03T07:44:43.060Z,4.20
2022-08-03T07:47:22.255Z,4.60
2022-08-03T07:49:53.670Z,4.10
2022-08-03T07:55:11.923Z,4.10
2022-08-03T07:57:42.459Z,4.10
2022-08-03T08:00:18.438Z,3.80
2022-08-03T08:02:48.925Z,4.60
2022-08-03T08:05:19.833Z,4.70
2022-08-03T08:10:22.543Z,3.90
2022-08-03T08:12:53.757Z,4.10
2022-08-03T08:15:27.468Z,3.90
2022-08-03T08:18:02.618Z,4.40
2022-08-03T08:20:39.244Z,4.40
2022-08-03T08:23:41.565Z,4.50
2022-08-03T08:26:04.281Z,4.40
2022-08-03T08:31:04.525Z,4.00
2022-08-03T08:34:03.027Z,4.10
2022-08-03T08:36:27.054Z,4.00
2022-08-03T08:39:03.283Z,4.50
2022-08-03T08:41:34.857Z,4.40
2022-08-03T08:44:08.465Z,3.90
2022-08-03T08:46:41.098Z,4.10
2022-08-03T08:49:13.685Z,4.50
2022-08-03T08:52:00.366Z,3.70
2022-08-03T08:54:40.025Z,3.80
2022-08-03T09:01:09.807Z,3.80
2022-08-03T09:07:58.815Z,4.00
2022-08-03T09:10:30.220Z,3.90
2022-08-03T09:12:58.138Z,4.00
2022-08-03T09:15:27.834Z,4.40
2022-08-03T09:17:58.447Z,3.80
2022-08-03T09:20:29.131Z,4.20
2022-08-03T09:25:34.037Z,4.00
2022-08-03T09:28:07.725Z,3.50
2022-08-03T09:30:36.389Z,3.90
2022-08-03T09:33:06.573Z,3.70
2022-08-03T09:35:53.709Z,3.90
2022-08-03T09:38:26.639Z,3.60
2022-08-03T09:40:59.453Z,3.50
2022-08-03T09:43:28.026Z,3.80
2022-08-03T09:46:04.303Z,3.70
2022-08-03T09:48:34.137Z,3.70
2022-08-03T09:51:13.423Z,3.70
2022-08-03T09:53:57.239Z,4.00
2022-08-03T09:56:39.873Z,3.50
2022-08-03T09:59:07.920Z,3.10
2022-08-03T10:01:38.354Z,3.50
2022-08-03T10:06:33.565Z,3.60
2022-08-03T10:09:09.792Z,3.60
2022-08-03T10:11:41.592Z,3.90
2022-08-03T10:14:18.076Z,3.80
2022-08-03T10:16:47.820Z,4.00
2022-08-03T10:19:16.113Z,4.00
2022-08-03T10:21:50.317Z,4.00
2022-08-03T10:24:24.808Z,3.70
2022-08-03T10:26:59.696Z,3.70
2022-08-03T10:29:29.197Z,3.40
2022-08-03T10:32:00.008Z,3.90
2022-08-03T10:34:34.085Z,3.70
2022-08-03T10:37:07.799Z,4.10
2022-08-03T10:39:35.821Z,4.00
2022-08-03T10:42:05.537Z,4.60
2022-08-03T10:44:42.873Z,4.30
2022-08-03T10:47:11.228Z,3.90
2022-08-03T10:49:39.907Z,4.00
2022-08-03T10:52:12.915Z,3.80
2022-08-03T10:55:07.829Z,3.80
2022-08-03T10:57:50.148Z,3.50
2022-08-03T11:00:21.679Z,3.60
2022-08-03T11:03:13.851Z,3.80
2022-08-03T11:05:42.967Z,4.00
2022-08-03T11:08:25.498Z,4.10
2022-08-03T11:10:55.160Z,3.90
2022-08-03T11:13:25.202Z,3.60
2022-08-03T11:18:30.949Z,3.80
2022-08-03T11:21:00.055Z,3.70
2022-08-03T11:24:05.648Z,4.10
2022-08-03T11:26:34.169Z,3.70
2022-08-03T11:29:28.486Z,3.70
2022-08-03T11:31:56.416Z,3.60
2022-08-03T11:34:24.464Z,3.40
2022-08-03T11:37:27.256Z,3.70
2022-08-03T11:39:57.822Z,3.40
2022-08-03T11:42:47.459Z,3.30
2022-08-03T11:45:15.615Z,3.80
2022-08-03T11:47:50.968Z,3.50
2022-08-03T11:50:20.464Z,3.70
2022-08-03T11:52:49.026Z,3.50
2022-08-03T11:55:20.973Z,3.70
2022-08-03T11:59:10.816Z,3.90
2022-08-03T12:00:36.750Z,3.90
2022-08-03T12:03:07.586Z,3.70
2022-08-03T12:05:41.441Z,3.40
2022-08-03T12:08:11.361Z,3.80
2022-08-03T12:14:08.891Z,3.20
2022-08-03T12:15:58.630Z,3.20
2022-08-03T12:18:26.594Z,3.50
2022-08-03T12:21:05.180Z,3.40
2022-08-03T12:23:37.408Z,3.40
2022-08-03T12:26:07.939Z,4.00
2022-08-03T12:31:08.878Z,3.50
2022-08-03T12:33:58.890Z,3.40
2022-08-03T12:36:28.850Z,3.70
2022-08-03T12:39:00.395Z,3.60
2022-08-03T12:41:35.045Z,3.50
2022-08-03T12:44:05.990Z,3.50
2022-08-03T12:46:41.635Z,3.30
2022-08-03T12:49:16.925Z,3.50
2022-08-03T12:52:05.318Z,3.50
2022-08-03T12:54:38.639Z,3.40
2022-08-03T12:57:16.025Z,3.20
2022-08-03T12:59:53.435Z,3.70
2022-08-03T13:02:24.671Z,3.60
2022-08-03T13:04:53.995Z,3.50
2022-08-03T13:07:22.462Z,4.10
2022-08-03T13:09:52.757Z,3.90
2022-08-03T13:12:21.844Z,3.90
2022-08-03T13:14:52.496Z,3.50
2022-08-03T13:17:20.730Z,3.60
2022-08-03T13:19:49.886Z,3.90
2022-08-03T13:22:19.388Z,3.70
2022-08-03T13:24:49.420Z,3.60
2022-08-03T13:28:04.794Z,3.50
2022-08-03T13:30:08.452Z,3.60
2022-08-03T13:32:36.811Z,3.50
2022-08-03T13:35:06.866Z,4.00
2022-08-03T13:37:35.453Z,3.60
2022-08-03T13:40:05.568Z,3.80
2022-08-03T13:42:36.076Z,4.00
2022-08-03T13:45:05.936Z,3.90
2022-08-03T13:47:34.651Z,3.80
2022-08-03T13:50:03.698Z,3.40
2022-08-03T13:52:33.743Z,3.70
2022-08-03T13:55:01.577Z,4.00
2022-08-03T13:58:04.487Z,3.70
2022-08-03T14:00:26.686Z,3.50
2022-08-03T14:03:06.735Z,3.60
2022-08-03T14:05:38.024Z,3.70
2022-08-03T14:08:06.752Z,3.60
2022-08-03T14:10:37.441Z,3.50
2022-08-03T14:13:05.734Z,3.90
2022-08-03T14:15:38.035Z,3.80
2022-08-03T14:18:11.970Z,3.50
2022-08-03T14:20:47.769Z,4.10
2022-08-03T14:23:18.446Z,3.60
2022-08-03T14:25:52.053Z,3.70
2022-08-03T14:28:21.941Z,3.50
2022-08-03T14:30:50.296Z,3.50
2022-08-03T14:33:18.210Z,3.60
2022-08-03T14:35:46.166Z,3.60
2022-08-03T14:38:14.083Z,3.70
2022-08-03T14:40:42.246Z,3.40
2022-08-03T14:43:10.014Z,3.60
2022-08-03T14:45:38.052Z,3.30
2022-08-03T14:50:29.393Z,3.70
2022-08-03T14:50:54.624Z,3.10
2022-08-03T14:53:22.765Z,3.00
2022-08-03T14:55:52.734Z,3.40
2022-08-03T14:58:22.038Z,3.30
2022-08-03T15:03:20.832Z,3.50
2022-08-03T15:05:48.751Z,3.40
2022-08-03T15:08:16.600Z,3.60
2022-08-03T15:10:45.538Z,3.70
2022-08-03T15:13:14.055Z,3.10
2022-08-03T15:15:42.115Z,3.80
2022-08-03T15:18:09.939Z,3.30
2022-08-03T15:20:46.675Z,3.60
2022-08-03T15:23:16.070Z,3.40
2022-08-03T15:26:03.704Z,3.60
2022-08-03T15:28:33.402Z,3.60
2022-08-03T15:31:01.496Z,3.20
2022-08-03T15:33:30.221Z,3.00
2022-08-03T15:35:59.317Z,3.20
2022-08-03T15:38:27.292Z,3.50
2022-08-03T15:40:55.524Z,3.60
2022-08-03T15:43:23.857Z,3.30
2022-08-03T15:46:19.103Z,3.50
2022-08-03T15:48:40.303Z,3.50
2022-08-03T15:51:08.710Z,3.30
2022-08-03T15:53:36.815Z,3.40
2022-08-03T15:56:12.153Z,3.40
2022-08-03T15:59:09.157Z,4.00
2022-08-03T16:01:30.811Z,3.80
2022-08-03T16:03:58.614Z,3.60
2022-08-03T16:06:35.209Z,3.60
2022-08-03T16:09:23.936Z,3.50
2022-08-03T16:14:32.576Z,3.20
2022-08-03T16:17:04.312Z,3.50
2022-08-03T16:19:33.111Z,3.50
2022-08-03T16:22:01.422Z,3.00
2022-08-03T16:24:31.588Z,3.40
2022-08-03T16:27:00.510Z,3.30
2022-08-03T16:29:29.223Z,3.20
2022-08-03T16:31:57.087Z,3.30
2022-08-03T16:34:25.038Z,3.30
2022-08-03T16:36:53.876Z,3.50
2022-08-03T16:39:21.817Z,3.50
2022-08-03T16:41:53.923Z,3.20
2022-08-03T16:44:30.514Z,3.10
2022-08-03T16:46:58.488Z,3.10
2022-08-03T16:49:55.949Z,3.40
2022-08-03T16:52:16.809Z,3.10
2022-08-03T16:54:52.793Z,3.00
2022-08-03T16:57:58.882Z,3.00
2022-08-03T17:00:32.907Z,3.00
2022-08-03T17:05:28.673Z,3.20
2022-08-03T17:08:12.833Z,3.30
2022-08-03T17:10:42.529Z,3.70
2022-08-03T17:13:21.483Z,3.60
2022-08-03T17:16:00.873Z,3.60
2022-08-03T17:18:33.829Z,3.10
2022-08-03T17:21:05.068Z,3.40
2022-08-03T17:23:44.275Z,3.50
2022-08-03T17:26:21.060Z,3.20
2022-08-03T17:28:57.981Z,2.70
2022-08-03T17:31:31.391Z,3.10
2022-08-03T17:34:02.156Z,3.10
2022-08-03T17:37:02.038Z,3.30
2022-08-03T17:39:41.865Z,2.50
2022-08-03T17:42:31.123Z,2.90
2022-08-03T17:45:01.572Z,3.00
2022-08-03T17:47:42.528Z,2.60
2022-08-03T17:53:00.931Z,2.40
2022-08-03T17:55:58.651Z,2.30
2022-08-03T17:58:27.174Z,2.20
2022-08-03T18:02:00.017Z,2.50
2022-08-03T18:04:06.155Z,2.40
2022-08-03T18:06:55.763Z,2.80
2022-08-03T18:10:03.350Z,2.80
2022-08-03T18:12:24.933Z,2.70
2022-08-03T18:15:01.230Z,2.90
2022-08-03T18:17:58.131Z,2.90
2022-08-03T18:20:32.256Z,3.00
2022-08-03T18:23:06.791Z,3.30
2022-08-03T18:25:45.162Z,2.90
2022-08-03T18:28:19.500Z,3.00
2022-08-03T18:30:53.200Z,2.80
2022-08-03T18:36:11.652Z,3.30
2022-08-03T18:38:47.429Z,3.30
2022-08-03T18:41:32.619Z,3.60
2022-08-03T18:44:08.146Z,2.90
2022-08-03T18:47:06.891Z,3.10
2022-08-03T18:49:46.426Z,3.10
2022-08-03T18:52:22.011Z,3.40
2022-08-03T18:55:14.012Z,3.20
2022-08-03T18:58:00.279Z,3.30
2022-08-03T19:00:54.305Z,3.30
2022-08-03T19:06:21.030Z,3.00
2022-08-03T19:08:55.782Z,3.80
2022-08-03T19:11:29.771Z,3.30
2022-08-03T19:14:22.680Z,3.20
2022-08-03T19:17:06.878Z,3.20
2022-08-03T19:19:43.683Z,3.30
2022-08-03T19:22:16.350Z,3.30
2022-08-03T19:24:46.435Z,3.30
2022-08-03T19:27:16.070Z,3.10
2022-08-03T19:30:00.452Z,3.10
2022-08-03T19:32:31.846Z,3.20
2022-08-03T19:35:01.615Z,3.40
2022-08-03T19:37:38.399Z,3.40
2022-08-03T19:40:12.414Z,3.20
2022-08-03T19:42:44.762Z,3.20
2022-08-03T19:45:21.609Z,3.40
2022-08-03T19:47:56.157Z,3.30
2022-08-03T19:50:26.546Z,3.40
2022-08-03T19:52:59.992Z,3.70
2022-08-03T19:55:32.222Z,3.50
2022-08-03T19:58:03.261Z,3.90
2022-08-03T20:03:07.028Z,3.20
2022-08-03T20:05:51.952Z,3.60
2022-08-03T20:08:21.591Z,3.60
2022-08-03T20:10:49.739Z,3.60
2022-08-03T20:13:21.134Z,3.80
2022-08-03T20:15:53.371Z,3.20
2022-08-03T20:18:22.514Z,3.30
2022-08-03T20:20:54.506Z,3.40
2022-08-03T20:23:26.698Z,3.60
2022-08-03T20:28:49.789Z,3.90
2022-08-03T20:31:23.813Z,3.40
2022-08-03T20:34:00.835Z,3.40
2022-08-03T20:36:28.736Z,3.70
2022-08-03T20:38:58.469Z,3.70
2022-08-03T20:41:27.602Z,3.30
2022-08-03T20:43:55.569Z,3.30
2022-08-03T20:46:32.568Z,3.40
2022-08-03T20:49:07.093Z,3.60
2022-08-03T20:51:49.744Z,3.40
2022-08-03T20:54:29.661Z,3.30
2022-08-03T20:57:00.022Z,3.50
2022-08-03T20:59:34.842Z,3.30
2022-08-03T21:02:19.694Z,3.60
2022-08-03T21:04:57.338Z,3.80
2022-08-03T21:07:45.706Z,3.50
2022-08-03T21:10:17.652Z,3.30
2022-08-03T21:12:51.125Z,3.70
2022-08-03T21:13:09.723Z,3.30
2022-08-03T21:16:06.700Z,3.30
2022-08-03T21:18:17.458Z,3.40
2022-08-03T21:20:47.747Z,3.80
2022-08-03T21:23:35.029Z,3.80
2022-08-03T21:26:10.773Z,3.80
2022-08-03T21:28:39.254Z,3.60
2022-08-03T21:31:07.742Z,3.70
2022-08-03T21:33:36.245Z,3.60
2022-08-03T21:36:05.545Z,3.40
2022-08-03T21:38:35.429Z,3.30
2022-08-03T21:41:03.747Z,3.50
2022-08-03T21:43:32.180Z,3.70
2022-08-03T21:46:02.111Z,3.60
2022-08-03T21:48:36.065Z,3.40
2022-08-03T21:51:05.379Z,3.20
2022-08-03T21:54:03.780Z,3.60
2022-08-03T21:56:28.754Z,3.70
2022-08-03T21:59:03.622Z,3.80
2022-08-03T22:01:35.527Z,3.80
2022-08-03T22:04:06.844Z,4.30
2022-08-03T22:06:35.293Z,3.40
2022-08-03T22:09:05.999Z,3.70
2022-08-03T22:11:35.983Z,3.60
2022-08-03T22:14:04.729Z,3.90
2022-08-03T22:16:32.981Z,3.90
2022-08-03T22:19:01.369Z,3.50
2022-08-03T22:21:36.046Z,3.70
2022-08-03T22:24:07.174Z,3.80
2022-08-03T22:26:39.390Z,4.30
2022-08-03T22:29:08.384Z,3.80
2022-08-03T22:31:58.439Z,3.70
2022-08-03T22:34:27.223Z,4.20
2022-08-03T22:37:01.132Z,4.10
2022-08-03T22:39:30.159Z,3.70
2022-08-03T22:41:58.929Z,4.00
2022-08-03T22:44:30.112Z,4.20
2022-08-03T22:46:59.427Z,4.00
2022-08-03T22:49:28.993Z,4.20
2022-08-03T22:52:06.804Z,4.30
2022-08-03T22:54:36.616Z,4.00
2022-08-03T22:57:08.038Z,4.30
2022-08-03T22:59:41.916Z,4.30
2022-08-03T23:02:21.043Z,4.60
2022-08-03T23:04:55.689Z,4.30
2022-08-03T23:07:31.879Z,4.40
2022-08-03T23:10:02.195Z,4.20
2022-08-03T23:12:33.954Z,4.30
2022-08-03T23:15:05.371Z,4.30
2022-08-03T23:17:57.414Z,4.40
2022-08-03T23:20:26.719Z,4.50
2022-08-03T23:22:57.032Z,4.70
2022-08-03T23:25:25.061Z,3.70
2022-08-03T23:28:05.461Z,4.20
2022-08-03T23:30:38.011Z,4.70
2022-08-03T23:33:07.880Z,4.30
2022-08-03T23:36:27.889Z,4.40
2022-08-03T23:38:54.427Z,4.60
2022-08-03T23:41:25.874Z,4.30
2022-08-03T23:43:54.572Z,4.30
2022-08-03T23:46:25.847Z,4.30
2022-08-03T23:48:56.552Z,4.30
2022-08-03T23:51:38.635Z,3.80
2022-08-03T23:54:19.072Z,4.40
2022-08-03T23:57:00.482Z,4.30
2022-08-03T23:59:46.632Z,4.10
